Time;durP1;ratioP1;P1;durP2;ratioP2;P2;SDS_P1;SDS_P2;PMS_P1;PMS_P2;Temp;Humidity;BMP_temperature;BMP_pressure;BME280_temperature;BME280_humidity;BME280_pressure;Samples;Min_cycle;Max_cycle;Signal;HPM_P1;HPM_P2
2023/11/02 11:03:35;;;;;;;12.20;4.60;;;;;;;13.14;71.28;97929.81;102234;1298;635844;-76
2023/11/02 11:06:09;;;;;;;10.20;3.40;;;;;;;13.20;71.25;97927.89;104524;1277;94371;-75
2023/11/02 11:08:48;;;;;;;8.70;4.00;;;;;;;13.29;71.15;97922.80;104909;1270;94710;-77
2023/11/02 11:11:29;;;;;;;;;;;;;;;;;;;;;
2023/11/02 11:14:27;;;;;;;8.10;3.10;;;;;;;13.44;71.16;97915.36;104823;1262;95616;-75
2023/11/02 11:16:56;;;;;;;4.90;2.40;;;;;;;13.50;71.06;97916.02;102111;1261;4175862;-77
2023/11/02 11:19:34;;;;;;;2.30;1.70;;;;;;;13.53;71.01;97912.70;105089;1264;94309;-76
2023/11/02 11:22:16;;;;;;;3.60;1.90;;;;;;;13.57;70.60;97903.06;105030;1263;107255;-77
2023/11/02 11:25:00;;;;;;;2.40;1.90;;;;;;;13.61;70.72;97901.19;104808;1257;94307;-76
2023/11/02 11:27:43;;;;;;;3.30;1.60;;;;;;;13.63;70.65;97899.26;104869;1263;107666;-78
2023/11/02 11:30:31;;;;;;;3.20;1.90;;;;;;;13.63;70.54;97891.95;105012;1266;95271;-76
2023/11/02 11:33:03;;;;;;;2.50;1.80;;;;;;;13.63;70.49;97889.38;105346;1258;95240;-79
2023/11/02 11:35:35;;;;;;;1.90;1.40;;;;;;;13.64;70.53;97890.52;105033;1262;108615;-76
2023/11/02 11:38:14;;;;;;;1.90;1.60;;;;;;;13.65;70.26;97886.70;105000;1263;96258;-76
2023/11/02 11:40:53;;;;;;;4.90;1.60;;;;;;;13.67;70.26;97891.29;105122;1261;107976;-77
2023/11/02 11:43:27;;;;;;;3.70;1.70;;;;;;;13.73;70.09;97888.04;104882;1257;95255;-75
2023/11/02 11:46:11;;;;;;;;;;;;;;;;;;;;;
2023/11/02 11:48:41;;;;;;;2.10;1.40;;;;;;;13.76;69.81;97884.02;105005;1263;108731;-79
2023/11/02 11:51:42;;;;;;;4.30;1.30;;;;;;;13.76;69.72;97883.29;105505;1254;95610;-77
2023/11/02 11:54:20;;;;;;;3.70;1.40;;;;;;;13.77;69.59;97876.20;105177;1254;107660;-77
2023/11/02 11:57:07;;;;;;;2.30;1.50;;;;;;;13.80;69.61;97870.73;105440;1254;95339;-79
2023/11/02 11:59:54;;;;;;;2.50;1.70;;;;;;;13.83;69.37;97865.77;104985;1262;95276;-76
2023/11/02 12:02:40;;;;;;;1.80;1.50;;;;;;;13.85;69.00;97860.77;105248;1257;108188;-79
2023/11/02 12:05:16;;;;;;;2.60;1.70;;;;;;;13.87;69.28;97857.02;105376;1257;95941;-79
2023/11/02 12:07:48;;;;;;;3.20;1.40;;;;;;;13.88;69.27;97855.45;105223;1257;107617;-75
2023/11/02 12:10:22;;;;;;;4.00;1.90;;;;;;;13.88;69.08;97849.54;105251;1257;95303;-76
2023/11/02 12:12:57;;;;;;;4.00;1.60;;;;;;;13.90;68.92;97854.77;105343;1258;96050;-77
2023/11/02 12:15:54;;;;;;;4.40;1.60;;;;;;;13.89;68.70;97852.67;105132;1257;107702;-78
2023/11/02 12:18:45;;;;;;;;;;;;;;;;;;;;;
2023/11/02 12:21:26;;;;;;;4.10;1.80;;;;;;;13.88;68.56;97840.67;105512;1260;107320;-76
2023/11/02 12:23:57;;;;;;;;;;;;;;;13.88;68.57;97832.52;105233;1257;95506;-79
2023/11/02 12:26:34;;;;;;;7.40;3.10;;;;;;;13.87;68.21;97828.39;105366;1256;96168;-78
2023/11/02 12:29:09;;;;;;;10.20;3.20;;;;;;;13.87;68.30;97822.80;105318;1254;110819;-76
2023/11/02 12:31:49;;;;;;;14.80;4.60;;;;;;;13.86;68.19;97821.80;105265;1257;95948;-77
2023/11/02 12:34:18;;;;;;;14.30;4.60;;;;;;;13.87;67.78;97815.19;105055;1260;107587;-76
2023/11/02 12:36:52;;;;;;;4.40;2.20;;;;;;;13.86;68.00;97816.16;105467;1258;95281;-76
2023/11/02 12:39:36;;;;;;;4.50;1.90;;;;;;;13.86;67.88;97812.21;105303;1253;95291;-76
2023/11/02 12:42:08;;;;;;;5.10;2.10;;;;;;;13.86;67.87;97809.88;105357;1259;108236;-77
2023/11/02 12:44:59;;;;;;;5.80;2.30;;;;;;;13.87;67.70;97809.84;105244;1263;95191;-78
2023/11/02 12:47:41;;;;;;;7.00;2.80;;;;;;;13.87;67.62;97810.14;105125;1260;107544;-76
2023/11/02 12:50:49;;;;;;;7.60;2.70;;;;;;;13.87;67.55;97809.04;105293;1259;95226;-77
2023/11/02 12:54:02;;;;;;;8.20;2.70;;;;;;;13.86;67.42;97804.50;105226;1258;95294;-81
2023/11/02 12:56:37;;;;;;;8.40;2.20;;;;;;;13.86;67.39;97791.23;105084;1261;108053;-78
2023/11/02 12:59:12;;;;;;;2.50;1.70;;;;;;;13.87;67.00;97782.48;105382;1252;95409;-77
2023/11/02 13:02:36;;;;;;;3.60;1.90;;;;;;;13.89;67.09;97786.95;105751;1254;107621;-77
2023/11/02 13:05:08;;;;;;;3.80;1.60;;;;;;;13.89;66.89;97783.55;105552;1255;95265;-75
2023/11/02 13:07:54;;;;;;;;;;;;;;;;;;;;;
2023/11/02 13:10:26;;;;;;;3.80;1.50;;;;;;;13.89;66.70;97774.43;105135;1260;108807;-77
2023/11/02 13:13:02;;;;;;;2.60;1.70;;;;;;;13.91;66.62;97768.18;105454;1254;95630;-76
2023/11/02 13:15:54;;;;;;;4.30;1.60;;;;;;;13.91;66.48;97767.88;105451;1253;107949;-77
2023/11/02 13:18:57;;;;;;;;;;;;;;;;;;;;;
2023/11/02 13:21:27;;;;;;;2.90;1.30;;;;;;;13.89;66.03;97761.13;105475;1257;95302;-76
2023/11/02 13:24:04;;;;;;;4.00;1.70;;;;;;;13.84;66.26;97760.00;105413;1256;108794;-76
2023/11/02 13:27:24;;;;;;;2.80;1.40;;;;;;;13.82;66.07;97759.55;105332;1254;95276;-77
2023/11/02 13:30:46;;;;;;;;;;;;;;;;;;;;;
2023/11/02 13:33:51;;;;;;;1.50;1.10;;;;;;;13.76;65.95;97747.02;105542;1260;95233;-76
2023/11/02 13:36:41;;;;;;;3.60;2.00;;;;;;;13.73;65.75;97747.14;105243;1259;95163;-77
2023/11/02 13:39:18;;;;;;;3.30;2.00;;;;;;;13.69;65.67;97739.11;105193;1260;107977;-77
2023/11/02 13:42:01;;;;;;;2.80;1.70;;;;;;;13.68;65.67;97733.91;105454;1257;95243;-76
2023/11/02 18:47:40;;;;;;;;;;;;;;;;;;;;;
2023/11/02 18:51:54;;;;;;;;;;;;;;;;;;;;;
2023/11/02 18:56:10;;;;;;;;;;;;;;;;;;;;;
